Startpagina
METAR-TAF:

METAR-TAF

Vliegvelden :

Vancouver, Brits Columbia, Canada

Vancouver International Airport

breedte: 49-11N, lengte: 123-10W, hoogte: 3 m

Actueel weer

Dit bericht is 54 minuten geleden gemaakt, om 20:00 UTC
Wind 8 kt uit het westzuidwesten
Temperatuur 18°C
Vochtigheid 64%
Druk 1017 hPa
Zicht: 48.3 km
Weinig wolken op 3000 ft
Weinig wolken op 24000 ft

METAR: CYVR 282000Z 24008KT 30SM FEW030 FEW240 18/11 A3002 RMK CU1CI1 CI TR SLP167 DENSITY ALT 300FT

Tijdstip: 13:54 (20:54 UTC)

Verwachting

Dit bericht is 16 minuten geleden gemaakt, om 20:38 UTC
Verwachting geldig van 28 om 21 UTC tot 29 om 24 UTC
Wind 8 kt uit het westzuidwesten
Zicht: 10 km
Onbewolkt
Van 29 om 0500 UTC
Wind 5 kt uit het oosten
Zicht: 10 km
Verspreide wolken op 24000 ft
Van 29 om 1700 UTC
Wind 10 kt uit het westen
Zicht: 10 km
Verspreide wolken op 14000 ft

TAF: CYVR 282038Z 2821/2924 24008KT P6SM SKC FM290500 09005KT P6SM SCT240 FM291700 26010KT P6SM SCT140 RMK NXT FCST BY 290000Z

Waarnemingen en weersverwachtingen van meer dan 4000 vliegvelden (METAR en TAF).

De beschikbare stations zijn de gele en rode punten op de kaart.

Ga met uw muis naar het station om de naam te zien.

Klik dan om waarnemingen en weersverwachtingen te zien.

kaart wijzigen: klik op de groene knoppen met een zwart kruis om in te zoomen, op de groene knop met een streepje om uit te zoomen of op de groene pijlen voor aangrenzende kaarten.


METAR-TAF: